createdAt,value
2024-02-02T00:02:47.536Z,101176.63
2024-02-02T00:06:50.984Z,101164.10
2024-02-02T00:10:56.184Z,101150.85
2024-02-02T00:14:59.531Z,101157.30
2024-02-02T00:19:02.666Z,101157.02
2024-02-02T00:23:05.858Z,101159.36
2024-02-02T00:27:08.989Z,101157.72
2024-02-02T00:31:12.051Z,101156.31
2024-02-02T00:35:15.360Z,101163.81
2024-02-02T00:39:18.590Z,101167.48
2024-02-02T00:43:21.886Z,101164.47
2024-02-02T00:47:24.888Z,101159.98
2024-02-02T00:51:29.177Z,101159.16
2024-02-02T00:55:32.256Z,101158.61
2024-02-02T00:59:35.322Z,101162.09
2024-02-02T01:03:39.073Z,101153.77
2024-02-02T01:07:42.702Z,101140.80
2024-02-02T01:11:45.780Z,101140.85
2024-02-02T01:15:48.888Z,101149.80
2024-02-02T01:19:51.926Z,101156.37
2024-02-02T01:23:54.933Z,101162.91
2024-02-02T01:27:58.368Z,101161.95
2024-02-02T01:32:01.473Z,101161.05
2024-02-02T01:36:04.714Z,101168.39
2024-02-02T01:40:08.647Z,101169.78
2024-02-02T01:44:11.704Z,101169.83
2024-02-02T01:48:14.994Z,101172.97
2024-02-02T01:52:18.298Z,101190.80
2024-02-02T01:56:21.600Z,101189.45
2024-02-02T02:00:24.779Z,101191.17
2024-02-02T02:04:28.117Z,101191.95
2024-02-02T02:08:31.259Z,101192.98
2024-02-02T02:12:35.200Z,101192.61
2024-02-02T02:16:38.340Z,101192.54
2024-02-02T02:20:42.107Z,101197.31
2024-02-02T02:24:45.205Z,101198.16
2024-02-02T02:28:49.133Z,101205.27
2024-02-02T02:32:52.264Z,101204.59
2024-02-02T02:36:55.954Z,101202.85
2024-02-02T02:40:59.154Z,101209.05
2024-02-02T02:45:02.382Z,101199.48
2024-02-02T02:49:05.789Z,101202.05
2024-02-02T02:53:08.921Z,101211.55
2024-02-02T02:57:12.042Z,101210.64
2024-02-02T03:01:15.795Z,101212.69
2024-02-02T03:05:18.948Z,101209.11
2024-02-02T03:09:22.129Z,101209.64
2024-02-02T03:13:25.324Z,101220.58
2024-02-02T03:17:28.607Z,101223.02
2024-02-02T03:21:31.721Z,101227.52
2024-02-02T03:25:35.182Z,101235.70
2024-02-02T03:29:38.836Z,101245.24
2024-02-02T03:33:41.925Z,101247.64
2024-02-02T03:37:45.045Z,101253.66
2024-02-02T03:41:48.245Z,101254.58
2024-02-02T03:45:51.317Z,101261.40
2024-02-02T03:49:54.330Z,101258.45
2024-02-02T03:53:57.556Z,101260.53
2024-02-02T03:58:00.644Z,101261.86
2024-02-02T04:02:03.969Z,101271.90
2024-02-02T04:06:07.360Z,101282.84
2024-02-02T04:10:10.805Z,101289.55
2024-02-02T04:14:13.762Z,101285.73
2024-02-02T04:18:17.244Z,101280.23
2024-02-02T04:22:20.460Z,101274.80
2024-02-02T04:26:23.659Z,101283.45
2024-02-02T04:30:26.888Z,101278.16
2024-02-02T04:34:30.293Z,101271.36
2024-02-02T04:38:33.545Z,101268.77
2024-02-02T04:42:36.866Z,101273.39
2024-02-02T04:46:39.898Z,101275.85
2024-02-02T04:50:42.966Z,101283.98
2024-02-02T04:54:46.069Z,101278.97
2024-02-02T04:58:53.235Z,101280.55
2024-02-02T05:02:56.370Z,101288.21
2024-02-02T05:06:59.663Z,101283.23
2024-02-02T05:11:03.540Z,101289.81
2024-02-02T05:15:07.836Z,101289.56
2024-02-02T05:19:11.090Z,101291.29
2024-02-02T05:23:14.472Z,101289.79
2024-02-02T05:27:17.877Z,101297.24
2024-02-02T05:31:21.157Z,101297.50
2024-02-02T05:35:24.214Z,101302.77
2024-02-02T05:39:27.399Z,101295.39
2024-02-02T05:43:31.223Z,101292.48
2024-02-02T05:47:34.357Z,101287.69
2024-02-02T05:51:37.643Z,101288.99
2024-02-02T05:55:41.279Z,101287.45
2024-02-02T05:59:45.003Z,101285.09
2024-02-02T06:03:48.190Z,101282.10
2024-02-02T06:07:51.246Z,101283.75
2024-02-02T06:11:54.605Z,101282.93
2024-02-02T06:15:58.176Z,101285.66
2024-02-02T06:20:01.741Z,101287.78
2024-02-02T06:24:07.821Z,101279.05
2024-02-02T06:28:11.317Z,101287.23
2024-02-02T06:32:14.738Z,101291.81
2024-02-02T06:36:17.965Z,101295.06
2024-02-02T06:40:21.332Z,101301.60
2024-02-02T06:44:24.759Z,101310.20
2024-02-02T06:48:28.391Z,101316.70
2024-02-02T06:52:32.013Z,101320.38
2024-02-02T06:56:40.776Z,101313.70
2024-02-02T07:00:44.432Z,101306.09
2024-02-02T07:04:49.368Z,101301.59
2024-02-02T07:08:54.081Z,101306.73
2024-02-02T07:13:02.604Z,101304.83
2024-02-02T07:17:19.077Z,101300.62
2024-02-02T07:21:30.665Z,101302.30
2024-02-02T07:25:38.738Z,101303.95
2024-02-02T07:29:42.335Z,101302.89
2024-02-02T07:33:49.312Z,101298.05
2024-02-02T07:37:52.750Z,101297.71
2024-02-02T07:41:55.847Z,101296.39
2024-02-02T07:45:59.222Z,101299.02
2024-02-02T07:50:04.576Z,101298.26
2024-02-02T07:54:07.761Z,101302.66
2024-02-02T07:58:10.840Z,101308.23
2024-02-02T08:02:13.983Z,101309.36
2024-02-02T08:06:17.520Z,101312.16
2024-02-02T08:10:20.761Z,101307.45
2024-02-02T08:14:24.265Z,101310.35
2024-02-02T08:18:30.159Z,101301.86
2024-02-02T08:22:33.554Z,101290.39
2024-02-02T08:26:36.629Z,101285.95
2024-02-02T08:30:39.771Z,101290.83
2024-02-02T08:34:43.079Z,101298.28
2024-02-02T08:38:46.185Z,101284.90
2024-02-02T08:42:49.682Z,101280.23
2024-02-02T08:46:52.959Z,101273.90
2024-02-02T08:50:59.076Z,101266.55
2024-02-02T08:55:05.912Z,101269.88
2024-02-02T08:59:43.328Z,101266.86
2024-02-02T09:03:48.776Z,101252.87
2024-02-02T09:08:09.652Z,101244.45
2024-02-02T09:12:12.895Z,101251.89
2024-02-02T09:16:20.480Z,101244.84
2024-02-02T09:20:50.725Z,101246.84
2024-02-02T09:24:55.097Z,101232.48
2024-02-02T09:29:01.449Z,101220.63
2024-02-02T09:33:04.696Z,101206.44
2024-02-02T09:37:21.806Z,101202.61
2024-02-02T09:41:34.073Z,101200.16
2024-02-02T09:46:04.475Z,101197.42
2024-02-02T09:50:27.322Z,101199.31
2024-02-02T09:54:53.351Z,101197.56
2024-02-02T09:59:05.709Z,101205.67
2024-02-02T10:03:18.042Z,101202.88
2024-02-02T10:07:30.511Z,101205.07
2024-02-02T10:11:50.867Z,101208.74
2024-02-02T10:16:06.333Z,101194.63
2024-02-02T10:20:15.690Z,101193.80
2024-02-02T10:24:27.937Z,101188.86
2024-02-02T10:28:39.414Z,101183.51
2024-02-02T10:32:48.743Z,101189.96
2024-02-02T10:37:13.545Z,101181.40
2024-02-02T10:41:52.553Z,101170.95
2024-02-02T10:46:27.392Z,101160.11
2024-02-02T10:50:55.143Z,101151.17
2024-02-02T10:55:01.217Z,101138.11
2024-02-02T10:59:19.507Z,101146.00
2024-02-02T11:03:50.528Z,101145.27
2024-02-02T11:07:59.675Z,101139.70
2024-02-02T11:12:27.336Z,101137.22
2024-02-02T11:16:49.677Z,101124.30
2024-02-02T11:21:25.050Z,101116.04
2024-02-02T11:25:41.784Z,101112.64
2024-02-02T11:30:02.858Z,101116.65
2024-02-02T11:34:36.226Z,101107.98
2024-02-02T11:39:10.592Z,101106.29
2024-02-02T11:43:16.615Z,101097.54
2024-02-02T11:47:20.952Z,101085.88
2024-02-02T11:51:25.795Z,101078.55
2024-02-02T11:55:36.867Z,101063.89
2024-02-02T11:59:44.796Z,101058.52
2024-02-02T12:04:06.672Z,101047.58
2024-02-02T12:08:20.065Z,101038.50
2024-02-02T12:12:31.789Z,101041.82
2024-02-02T12:16:34.903Z,101046.81
2024-02-02T12:20:40.715Z,101050.17
2024-02-02T12:24:44.197Z,101042.81
2024-02-02T12:28:47.426Z,101048.50
2024-02-02T12:32:58.641Z,101037.54
2024-02-02T12:37:03.052Z,101030.20
2024-02-02T12:41:06.426Z,101022.23
2024-02-02T12:45:16.611Z,101016.98
2024-02-02T12:49:26.286Z,101009.13
2024-02-02T12:53:30.168Z,100999.73
2024-02-02T12:57:35.182Z,101005.29
2024-02-02T13:01:38.563Z,100993.09
2024-02-02T13:05:43.683Z,100982.23
2024-02-02T13:09:52.594Z,100957.80
2024-02-02T13:14:05.442Z,100952.29
2024-02-02T13:18:18.503Z,100960.82
2024-02-02T13:22:28.009Z,100955.23
2024-02-02T13:26:38.271Z,100955.05
2024-02-02T13:30:42.180Z,100944.52
2024-02-02T13:34:45.464Z,100938.81
2024-02-02T13:38:49.170Z,100928.17
2024-02-02T13:42:52.698Z,100907.50
2024-02-02T13:46:57.530Z,100900.70
2024-02-02T13:51:01.502Z,100897.79
2024-02-02T13:55:07.922Z,100887.05
2024-02-02T13:59:21.460Z,100884.60
2024-02-02T14:03:24.642Z,100881.83
2024-02-02T14:07:28.091Z,100865.79
2024-02-02T14:11:32.360Z,100862.82
2024-02-02T14:15:39.580Z,100863.48
2024-02-02T14:19:42.841Z,100855.48
2024-02-02T14:23:46.166Z,100850.66
2024-02-02T14:27:49.198Z,100849.39
2024-02-02T14:31:55.629Z,100841.56
2024-02-02T14:35:58.943Z,100828.34
2024-02-02T14:40:04.705Z,100820.45
2024-02-02T14:44:08.018Z,100806.09
2024-02-02T14:48:12.329Z,100795.30
2024-02-02T14:52:15.640Z,100791.85
2024-02-02T14:56:19.100Z,100785.20
2024-02-02T15:00:31.097Z,100778.39
2024-02-02T15:04:34.354Z,100777.20
2024-02-02T15:08:37.507Z,100768.78
2024-02-02T15:12:43.376Z,100765.83
2024-02-02T15:16:46.871Z,100761.19
2024-02-02T15:20:50.375Z,100750.84
2024-02-02T15:24:53.565Z,100748.61
2024-02-02T15:28:56.694Z,100739.02
2024-02-02T15:32:59.926Z,100730.39
2024-02-02T15:37:03.511Z,100723.58
2024-02-02T15:41:15.090Z,100711.69
2024-02-02T15:45:18.588Z,100704.85
2024-02-02T15:49:21.779Z,100710.21
2024-02-02T15:53:25.703Z,100708.92
2024-02-02T15:57:28.907Z,100701.21
2024-02-02T16:01:32.074Z,100690.19
2024-02-02T16:05:36.444Z,100676.10
2024-02-02T16:09:41.626Z,100673.63
2024-02-02T16:13:45.219Z,100666.67
2024-02-02T16:17:48.400Z,100659.02
2024-02-02T16:21:52.423Z,100661.20
2024-02-02T16:25:55.528Z,100656.10
2024-02-02T16:29:58.812Z,100652.91
2024-02-02T16:34:04.184Z,100647.94
2024-02-02T16:38:07.478Z,100643.05
2024-02-02T16:42:11.229Z,100631.89
2024-02-02T16:46:14.498Z,100621.89
2024-02-02T16:50:17.689Z,100625.90
2024-02-02T16:54:21.239Z,100623.80
2024-02-02T16:58:24.905Z,100612.60
2024-02-02T17:02:28.147Z,100608.27
2024-02-02T17:06:31.658Z,100602.04
2024-02-02T17:10:35.238Z,100602.31
2024-02-02T17:14:39.730Z,100604.59
2024-02-02T17:18:43.265Z,100602.57
2024-02-02T17:22:46.722Z,100602.40
2024-02-02T17:26:50.422Z,100602.23
2024-02-02T17:30:54.322Z,100596.20
2024-02-02T17:34:57.895Z,100600.40
2024-02-02T17:39:01.227Z,100589.16
2024-02-02T17:43:08.680Z,100567.16
2024-02-02T17:47:12.522Z,100561.58
2024-02-02T17:51:23.092Z,100545.23
2024-02-02T17:55:26.561Z,100530.98
2024-02-02T17:59:29.910Z,100528.08
2024-02-02T18:03:33.662Z,100527.75
2024-02-02T18:07:44.687Z,100516.92
2024-02-02T18:11:51.228Z,100499.48
2024-02-02T18:15:54.621Z,100491.42
2024-02-02T18:19:58.024Z,100498.52
2024-02-02T18:24:01.606Z,100504.05
2024-02-02T18:28:04.989Z,100501.59
2024-02-02T18:32:09.146Z,100490.86
2024-02-02T18:36:12.460Z,100484.82
2024-02-02T18:40:16.780Z,100479.65
2024-02-02T18:44:20.055Z,100479.85
2024-02-02T18:48:25.381Z,100473.86
2024-02-02T18:52:30.640Z,100468.93
2024-02-02T18:56:34.105Z,100454.27
2024-02-02T19:00:37.552Z,100450.77
2024-02-02T19:04:41.798Z,100452.14
2024-02-02T19:08:45.721Z,100444.11
2024-02-02T19:12:49.052Z,100443.80
2024-02-02T19:16:52.474Z,100440.98
2024-02-02T19:20:55.815Z,100431.90
2024-02-02T19:25:00.015Z,100422.67
2024-02-02T19:29:04.196Z,100415.80
2024-02-02T19:33:07.906Z,100418.06
2024-02-02T19:37:11.655Z,100427.93
2024-02-02T19:41:20.179Z,100424.64
2024-02-02T19:45:23.470Z,100424.90
2024-02-02T19:49:27.439Z,100418.03
2024-02-02T19:53:30.798Z,100424.41
2024-02-02T19:57:34.115Z,100422.27
2024-02-02T20:01:38.872Z,100417.88
2024-02-02T20:05:42.285Z,100408.88
2024-02-02T20:09:54.023Z,100411.20
2024-02-02T20:13:57.190Z,100412.71
2024-02-02T20:18:00.668Z,100415.60
2024-02-02T20:22:04.038Z,100419.63
2024-02-02T20:26:07.519Z,100422.23
2024-02-02T20:30:12.477Z,100430.96
2024-02-02T20:34:16.005Z,100445.15
2024-02-02T20:38:19.390Z,100446.77
2024-02-02T20:42:22.653Z,100454.59
2024-02-02T20:46:25.917Z,100457.98
2024-02-02T20:50:29.121Z,100467.05
2024-02-02T20:54:32.243Z,100466.01
2024-02-02T20:58:35.399Z,100468.63
2024-02-02T21:02:43.257Z,100467.14
2024-02-02T21:06:46.591Z,100470.95
2024-02-02T21:10:49.824Z,100472.20
2024-02-02T21:14:53.553Z,100476.98
2024-02-02T21:18:57.894Z,100480.92
2024-02-02T21:23:01.642Z,100479.73
2024-02-02T21:27:04.996Z,100482.17
2024-02-02T21:31:08.372Z,100483.96
2024-02-02T21:35:11.650Z,100479.94
2024-02-02T21:39:15.066Z,100478.77
2024-02-02T21:43:18.071Z,100480.24
2024-02-02T21:47:21.522Z,100470.41
2024-02-02T21:51:24.686Z,100455.27
2024-02-02T21:55:27.887Z,100457.85
2024-02-02T21:59:30.942Z,100437.76
2024-02-02T22:03:34.012Z,100443.42
2024-02-02T22:07:39.220Z,100438.53
2024-02-02T22:11:42.480Z,100450.98
2024-02-02T22:15:45.621Z,100441.86
2024-02-02T22:19:48.725Z,100434.86
2024-02-02T22:23:52.232Z,100442.38
2024-02-02T22:27:55.326Z,100442.55
2024-02-02T22:31:58.585Z,100432.81
2024-02-02T22:36:01.591Z,100426.56
2024-02-02T22:40:05.576Z,100412.27
2024-02-02T22:44:08.599Z,100427.42
2024-02-02T22:48:11.998Z,100414.45
2024-02-02T22:52:15.173Z,100410.23
2024-02-02T22:56:18.401Z,100414.62
2024-02-02T23:00:22.743Z,100407.81
2024-02-02T23:04:26.028Z,100402.39
2024-02-02T23:08:30.571Z,100402.48
2024-02-02T23:12:33.825Z,100387.22
2024-02-02T23:16:36.935Z,100392.94
2024-02-02T23:20:40.150Z,100386.31
2024-02-02T23:24:43.353Z,100387.28
2024-02-02T23:28:46.339Z,100369.32
2024-02-02T23:32:49.433Z,100373.50
2024-02-02T23:36:52.559Z,100376.92
2024-02-02T23:40:57.020Z,100366.48
2024-02-02T23:45:00.182Z,100360.96
2024-02-02T23:49:03.720Z,100360.83
2024-02-02T23:53:06.863Z,100351.61
2024-02-02T23:57:09.959Z,100351.75
